createdAt,value
2018-11-14T00:02:02.306Z,3.87
2018-11-14T00:04:29.165Z,3.40
2018-11-14T00:06:56.113Z,3.90
2018-11-14T00:09:22.966Z,3.57
2018-11-14T00:11:49.914Z,3.63
2018-11-14T00:14:16.749Z,3.77
2018-11-14T00:16:43.595Z,3.90
2018-11-14T00:19:10.436Z,4.33
2018-11-14T00:21:37.279Z,3.63
2018-11-14T00:24:04.113Z,3.40
2018-11-14T00:26:30.940Z,3.93
2018-11-14T00:28:57.883Z,3.37
2018-11-14T00:31:25.563Z,3.70
2018-11-14T00:33:52.539Z,3.90
2018-11-14T00:36:19.366Z,3.10
2018-11-14T00:38:46.191Z,3.40
2018-11-14T00:41:13.022Z,3.37
2018-11-14T00:43:39.861Z,3.60
2018-11-14T00:46:06.701Z,3.70
2018-11-14T00:48:33.568Z,4.20
2018-11-14T00:51:00.390Z,3.70
2018-11-14T00:53:27.228Z,3.70
2018-11-14T00:55:54.053Z,3.37
2018-11-14T00:58:20.881Z,3.40
2018-11-14T01:00:47.721Z,3.80
2018-11-14T01:03:14.544Z,4.10
2018-11-14T01:05:41.474Z,3.90
2018-11-14T01:08:08.319Z,3.87
2018-11-14T01:10:35.146Z,3.40
2018-11-14T01:13:02.084Z,3.87
2018-11-14T01:15:29.056Z,4.50
2018-11-14T01:17:55.878Z,3.40
2018-11-14T01:20:22.701Z,4.30
2018-11-14T01:22:49.598Z,3.93
2018-11-14T01:25:16.652Z,3.83
2018-11-14T01:27:43.462Z,3.53
2018-11-14T01:30:10.319Z,3.60
2018-11-14T01:32:37.120Z,3.97
2018-11-14T01:35:04.006Z,4.00
2018-11-14T01:37:30.814Z,3.70
2018-11-14T01:39:57.689Z,3.53
2018-11-14T01:42:24.527Z,4.23
2018-11-14T01:44:51.371Z,3.70
2018-11-14T01:47:18.210Z,3.47
2018-11-14T01:49:45.047Z,3.80
2018-11-14T01:52:11.874Z,3.77
2018-11-14T01:54:38.752Z,3.73
2018-11-14T01:57:05.567Z,3.60
2018-11-14T01:59:32.409Z,3.37
2018-11-14T02:01:59.230Z,3.63
2018-11-14T02:04:26.111Z,4.00
2018-11-14T02:06:52.944Z,3.70
2018-11-14T02:09:19.775Z,3.90
2018-11-14T02:11:46.616Z,3.93
2018-11-14T02:14:13.484Z,3.90
2018-11-14T02:16:40.302Z,3.90
2018-11-14T02:19:07.139Z,4.03
2018-11-14T02:21:34.013Z,4.20
2018-11-14T02:24:00.857Z,3.50
2018-11-14T02:26:27.670Z,3.80
2018-11-14T02:28:54.506Z,3.20
2018-11-14T02:31:21.350Z,4.67
2018-11-14T02:33:48.218Z,3.40
2018-11-14T02:36:15.042Z,3.17
2018-11-14T02:38:41.873Z,3.50
2018-11-14T02:41:08.703Z,3.20
2018-11-14T02:43:35.534Z,3.87
2018-11-14T02:46:02.391Z,3.73
2018-11-14T02:48:29.262Z,3.23
2018-11-14T02:50:56.080Z,4.10
2018-11-14T02:53:22.978Z,3.40
2018-11-14T02:55:49.806Z,3.67
2018-11-14T02:58:16.642Z,3.00
2018-11-14T03:00:43.469Z,3.43
2018-11-14T03:03:10.299Z,3.07
2018-11-14T03:05:37.187Z,3.63
2018-11-14T03:08:04.014Z,3.30
2018-11-14T03:10:30.845Z,3.83
2018-11-14T03:12:57.709Z,3.03
2018-11-14T03:15:24.553Z,3.37
2018-11-14T03:17:51.387Z,3.37
2018-11-14T03:20:18.211Z,2.83
2018-11-14T03:22:45.039Z,2.90
2018-11-14T03:25:11.962Z,3.10
2018-11-14T03:27:38.775Z,2.50
2018-11-14T03:30:05.619Z,3.20
2018-11-14T03:32:32.441Z,3.17
2018-11-14T03:34:59.294Z,3.40
2018-11-14T03:37:26.128Z,3.63
2018-11-14T03:39:52.959Z,2.53
2018-11-14T03:42:19.798Z,3.03
2018-11-14T03:44:46.664Z,2.80
2018-11-14T03:47:14.291Z,2.70
2018-11-14T03:49:41.069Z,2.67
2018-11-14T03:52:07.894Z,3.17
2018-11-14T03:54:34.854Z,3.40
2018-11-14T03:57:01.678Z,2.80
2018-11-14T03:59:28.506Z,2.83
2018-11-14T04:01:55.338Z,2.50
2018-11-14T04:04:22.235Z,2.90
2018-11-14T04:06:49.099Z,2.83
2018-11-14T04:09:15.953Z,2.70
2018-11-14T04:11:42.750Z,2.70
2018-11-14T04:14:09.599Z,3.00
2018-11-14T04:16:36.427Z,2.70
2018-11-14T04:19:03.251Z,2.97
2018-11-14T04:21:30.070Z,2.77
2018-11-14T04:23:56.972Z,3.00
2018-11-14T04:26:23.801Z,2.87
2018-11-14T04:28:50.660Z,2.87
2018-11-14T04:31:17.475Z,2.43
2018-11-14T04:33:44.293Z,2.50
2018-11-14T04:36:11.183Z,2.87
2018-11-14T04:38:38.014Z,2.83
2018-11-14T04:41:04.848Z,2.57
2018-11-14T04:43:31.697Z,2.40
2018-11-14T04:45:58.562Z,2.60
2018-11-14T04:48:25.391Z,2.77
2018-11-14T04:50:52.286Z,2.57
2018-11-14T04:53:19.065Z,3.13
2018-11-14T04:55:45.949Z,3.17
2018-11-14T04:58:12.790Z,2.60
2018-11-14T05:00:39.619Z,3.00
2018-11-14T05:03:06.450Z,3.70
2018-11-14T05:05:33.311Z,2.73
2018-11-14T05:08:00.139Z,3.30
2018-11-14T05:10:27.043Z,3.10
2018-11-14T05:12:53.911Z,2.90
2018-11-14T05:15:20.885Z,2.42
2018-11-14T05:17:47.706Z,3.13
2018-11-14T05:20:14.526Z,2.77
2018-11-14T05:22:41.352Z,2.63
2018-11-14T05:25:08.245Z,3.10
2018-11-14T05:27:35.087Z,3.40
2018-11-14T05:30:01.929Z,2.53
2018-11-14T05:32:28.762Z,2.40
2018-11-14T05:34:55.614Z,2.93
2018-11-14T05:37:22.445Z,3.40
2018-11-14T05:39:49.370Z,2.40
2018-11-14T05:42:16.112Z,2.97
2018-11-14T05:44:42.998Z,2.60
2018-11-14T05:47:10.112Z,3.20
2018-11-14T05:49:37.605Z,2.30
2018-11-14T05:52:04.437Z,2.90
2018-11-14T05:54:31.387Z,3.20
2018-11-14T05:56:58.227Z,2.70
2018-11-14T05:59:25.065Z,2.43
2018-11-14T06:01:51.888Z,2.40
2018-11-14T06:04:18.759Z,3.00
2018-11-14T06:06:45.595Z,2.60
2018-11-14T06:09:12.409Z,2.70
2018-11-14T06:11:39.229Z,2.17
2018-11-14T06:14:06.140Z,2.80
2018-11-14T06:16:32.980Z,2.50
2018-11-14T06:18:59.848Z,2.97
2018-11-14T06:21:26.625Z,3.10
2018-11-14T06:23:53.497Z,2.97
2018-11-14T06:26:20.350Z,2.77
2018-11-14T06:28:47.186Z,2.60
2018-11-14T06:31:14.005Z,2.77
2018-11-14T06:33:40.830Z,3.00
2018-11-14T06:36:07.715Z,2.60
2018-11-14T06:38:34.542Z,2.63
2018-11-14T06:41:01.367Z,2.70
2018-11-14T06:43:28.197Z,2.60
2018-11-14T06:45:55.031Z,2.70
2018-11-14T06:48:21.864Z,1.70
2018-11-14T06:50:48.697Z,2.23
2018-11-14T06:53:15.530Z,2.53
2018-11-14T06:55:42.464Z,2.83
2018-11-14T06:58:09.332Z,2.77
2018-11-14T07:00:36.163Z,3.00
2018-11-14T07:03:02.981Z,3.30
2018-11-14T07:05:29.866Z,2.90
2018-11-14T07:07:56.675Z,3.10
2018-11-14T07:10:23.522Z,3.10
2018-11-14T07:12:50.353Z,2.77
2018-11-14T07:15:17.206Z,3.20
2018-11-14T07:17:44.047Z,2.90
2018-11-14T07:20:11.343Z,3.13
2018-11-14T07:22:38.151Z,3.63
2018-11-14T07:25:05.273Z,3.50
2018-11-14T07:27:32.118Z,3.97
2018-11-14T07:29:58.976Z,3.03
2018-11-14T07:32:25.804Z,3.50
2018-11-14T07:34:52.763Z,3.13
2018-11-14T07:37:19.589Z,3.80
2018-11-14T07:39:46.442Z,3.47
2018-11-14T07:42:13.279Z,4.03
2018-11-14T07:44:40.708Z,4.03
2018-11-14T07:47:07.538Z,2.97
2018-11-14T07:49:34.363Z,3.97
2018-11-14T07:52:01.211Z,4.00
2018-11-14T07:54:28.172Z,4.73
2018-11-14T07:56:54.958Z,3.57
2018-11-14T07:59:21.806Z,3.80
2018-11-14T08:01:48.637Z,3.50
2018-11-14T08:04:15.497Z,5.43
2018-11-14T08:06:42.329Z,4.23
2018-11-14T08:09:09.183Z,4.10
2018-11-14T08:11:36.030Z,4.10
2018-11-14T08:14:02.877Z,4.00
2018-11-14T08:16:29.701Z,4.13
2018-11-14T08:18:56.642Z,4.13
2018-11-14T08:21:23.353Z,3.80
2018-11-14T08:23:50.244Z,4.20
2018-11-14T08:26:17.068Z,4.43
2018-11-14T08:28:43.899Z,4.50
2018-11-14T08:31:10.741Z,4.90
2018-11-14T08:33:37.552Z,4.67
2018-11-14T08:36:04.383Z,3.80
2018-11-14T08:38:31.228Z,4.57
2018-11-14T08:40:58.034Z,4.03
2018-11-14T08:43:24.881Z,4.63
2018-11-14T08:45:51.713Z,3.93
2018-11-14T08:48:18.554Z,4.53
2018-11-14T08:50:45.377Z,4.93
2018-11-14T08:53:12.198Z,4.60
2018-11-14T08:55:39.195Z,4.27
2018-11-14T08:58:06.150Z,4.33
2018-11-14T09:00:32.854Z,3.77
2018-11-14T09:02:59.680Z,4.10
2018-11-14T09:05:26.582Z,4.13
2018-11-14T09:07:53.451Z,4.60
2018-11-14T09:10:20.234Z,4.23
2018-11-14T09:12:47.108Z,4.00
2018-11-14T09:15:13.959Z,4.60
2018-11-14T09:17:40.860Z,3.70
2018-11-14T09:20:07.758Z,3.83
2018-11-14T09:22:34.666Z,4.30
2018-11-14T09:25:01.568Z,4.43
2018-11-14T09:27:28.355Z,4.10
2018-11-14T09:29:55.183Z,3.80
2018-11-14T09:32:22.701Z,5.00
2018-11-14T09:34:49.703Z,3.37
2018-11-14T09:37:16.529Z,4.23
2018-11-14T09:39:43.379Z,3.97
2018-11-14T09:42:10.234Z,4.30
2018-11-14T09:44:37.243Z,4.40
2018-11-14T09:47:03.953Z,4.47
2018-11-14T09:49:30.859Z,3.80
2018-11-14T09:51:57.602Z,4.10
2018-11-14T09:54:24.444Z,3.87
2018-11-14T09:56:51.306Z,4.43
2018-11-14T09:59:18.107Z,3.47
2018-11-14T10:01:44.979Z,3.80
2018-11-14T10:04:12.030Z,3.63
2018-11-14T10:06:38.932Z,4.63
2018-11-14T10:09:05.818Z,3.53
2018-11-14T10:11:32.670Z,2.90
2018-11-14T10:13:59.659Z,3.37
2018-11-14T10:16:26.432Z,3.90
2018-11-14T10:18:53.266Z,3.10
2018-11-14T10:21:20.206Z,3.77
2018-11-14T10:23:46.986Z,3.87
2018-11-14T10:26:13.814Z,3.33
2018-11-14T10:28:40.672Z,3.10
2018-11-14T10:31:07.788Z,3.70
2018-11-14T10:33:34.618Z,3.23
2018-11-14T10:36:01.457Z,3.47
2018-11-14T10:38:28.278Z,3.00
2018-11-14T10:40:55.121Z,3.10
2018-11-14T10:43:21.942Z,3.07
2018-11-14T10:45:48.967Z,2.73
2018-11-14T10:48:15.803Z,2.90
2018-11-14T10:50:42.662Z,3.17
2018-11-14T10:53:09.470Z,2.63
2018-11-14T10:55:36.472Z,2.60
2018-11-14T10:58:03.334Z,2.80
2018-11-14T11:00:30.166Z,2.70
2018-11-14T11:02:56.985Z,2.73
2018-11-14T11:05:23.921Z,2.80
2018-11-14T11:07:50.808Z,2.60
2018-11-14T11:10:17.582Z,2.63
2018-11-14T11:12:44.421Z,2.60
2018-11-14T11:15:11.289Z,2.57
2018-11-14T11:17:38.132Z,2.70
2018-11-14T11:20:05.065Z,2.33
2018-11-14T11:22:31.912Z,2.40
2018-11-14T11:24:59.070Z,2.97
2018-11-14T11:27:25.897Z,2.33
2018-11-14T11:29:52.725Z,2.40
2018-11-14T11:32:20.462Z,2.33
2018-11-14T11:34:47.602Z,2.30
2018-11-14T11:37:14.484Z,2.20
2018-11-14T11:39:41.288Z,2.00
2018-11-14T11:42:08.116Z,2.33
2018-11-14T11:44:35.354Z,2.40
2018-11-14T11:47:02.128Z,2.07
2018-11-14T11:49:28.942Z,2.30
2018-11-14T11:51:55.957Z,2.07
2018-11-14T11:54:22.615Z,2.20
2018-11-14T11:56:49.447Z,2.17
2018-11-14T11:59:16.278Z,2.13
2018-11-14T12:01:43.170Z,1.97
2018-11-14T12:04:10.301Z,1.90
2018-11-14T12:06:37.120Z,2.60
2018-11-14T12:09:03.952Z,2.67
2018-11-14T12:11:30.973Z,2.20
2018-11-14T12:13:58.230Z,1.80
2018-11-14T12:16:24.982Z,2.23
2018-11-14T12:18:51.914Z,1.67
2018-11-14T12:21:18.815Z,2.17
2018-11-14T12:23:45.875Z,1.93
2018-11-14T12:26:12.670Z,2.17
2018-11-14T12:28:39.512Z,1.70
2018-11-14T12:31:06.717Z,2.10
2018-11-14T12:33:33.409Z,2.07
2018-11-14T12:36:00.229Z,2.07
2018-11-14T12:38:27.050Z,1.80
2018-11-14T12:40:53.876Z,2.33
2018-11-14T12:43:20.752Z,1.67
2018-11-14T12:45:47.594Z,2.13
2018-11-14T12:48:14.414Z,1.60
2018-11-14T12:50:41.335Z,1.97
2018-11-14T12:53:08.147Z,1.83
2018-11-14T12:55:35.139Z,1.80
2018-11-14T12:58:02.025Z,2.07
2018-11-14T13:00:28.844Z,1.97
2018-11-14T13:02:55.701Z,1.60
2018-11-14T13:05:22.704Z,1.63
2018-11-14T13:07:49.542Z,1.83
2018-11-14T13:10:16.432Z,2.80
2018-11-14T13:12:43.314Z,1.80
2018-11-14T13:15:10.298Z,2.00
2018-11-14T13:17:37.184Z,1.90
2018-11-14T13:20:04.071Z,1.80
2018-11-14T13:22:30.880Z,2.17
2018-11-14T13:24:57.883Z,1.40
2018-11-14T13:27:24.961Z,2.07
2018-11-14T13:29:51.777Z,1.50
2018-11-14T13:32:19.494Z,1.83
2018-11-14T13:34:46.509Z,1.47
2018-11-14T13:37:13.357Z,1.50
2018-11-14T13:39:40.182Z,1.77
2018-11-14T13:42:07.038Z,1.80
2018-11-14T13:44:34.050Z,2.10
2018-11-14T13:47:00.891Z,1.60
2018-11-14T13:49:27.856Z,1.60
2018-11-14T13:51:54.645Z,1.63
2018-11-14T13:54:21.650Z,2.03
2018-11-14T13:56:48.520Z,2.20
2018-11-14T13:59:15.338Z,2.77
2018-11-14T14:01:42.168Z,2.30
2018-11-14T14:04:09.182Z,2.03
2018-11-14T14:06:36.019Z,2.13
2018-11-14T14:09:02.854Z,1.97
2018-11-14T14:11:29.777Z,1.63
2018-11-14T14:13:56.807Z,1.80
2018-11-14T14:16:23.676Z,1.90
2018-11-14T14:18:50.447Z,1.80
2018-11-14T14:21:17.293Z,2.00
2018-11-14T14:23:44.138Z,1.40
2018-11-14T14:26:10.974Z,1.57
2018-11-14T14:28:37.802Z,1.80
2018-11-14T14:31:04.632Z,1.90
2018-11-14T14:33:31.459Z,2.20
2018-11-14T14:35:58.302Z,1.70
2018-11-14T14:38:25.138Z,1.90
2018-11-14T14:40:52.141Z,2.10
2018-11-14T14:43:18.974Z,1.53
2018-11-14T14:45:46.177Z,1.73
2018-11-14T14:48:13.164Z,1.80
2018-11-14T14:50:40.036Z,1.90
2018-11-14T14:53:06.858Z,1.47
2018-11-14T14:55:33.708Z,1.60
2018-11-14T14:58:00.545Z,1.90
2018-11-14T15:00:27.368Z,1.43
2018-11-14T15:02:54.227Z,1.93
2018-11-14T15:05:21.110Z,1.70
2018-11-14T15:07:47.918Z,1.40
2018-11-14T15:10:14.770Z,1.50
2018-11-14T15:12:41.588Z,2.30
2018-11-14T15:15:08.456Z,1.30
2018-11-14T15:17:35.305Z,1.80
2018-11-14T15:20:02.159Z,1.80
2018-11-14T15:22:29.003Z,1.77
2018-11-14T15:24:56.002Z,2.00
2018-11-14T15:27:22.880Z,1.40
2018-11-14T15:29:49.740Z,1.50
2018-11-14T15:32:17.204Z,2.27
2018-11-14T15:34:44.489Z,1.40
2018-11-14T15:37:11.512Z,1.50
2018-11-14T15:39:38.326Z,1.60
2018-11-14T15:42:05.293Z,1.57
2018-11-14T15:44:32.221Z,1.60
2018-11-14T15:46:59.085Z,2.00
2018-11-14T15:49:25.914Z,1.50
2018-11-14T15:51:53.124Z,1.70
2018-11-14T15:54:20.005Z,1.50
2018-11-14T15:56:47.877Z,1.53
2018-11-14T15:59:14.710Z,1.77
2018-11-14T16:01:41.535Z,1.80
2018-11-14T16:04:08.380Z,2.10
2018-11-14T16:06:35.211Z,1.97
2018-11-14T16:09:02.042Z,1.70
2018-11-14T16:11:28.867Z,2.10
2018-11-14T16:13:55.746Z,1.60
2018-11-14T16:16:22.574Z,1.67
2018-11-14T16:18:49.404Z,2.10
2018-11-14T16:21:16.234Z,1.83
2018-11-14T16:23:43.113Z,1.93
2018-11-14T16:26:09.956Z,2.00
2018-11-14T16:28:36.790Z,1.60
2018-11-14T16:31:03.631Z,1.40
2018-11-14T16:33:30.456Z,1.60
2018-11-14T16:35:57.277Z,1.70
2018-11-14T16:38:24.109Z,1.43
2018-11-14T16:40:50.935Z,1.80
2018-11-14T16:43:17.902Z,1.60
2018-11-14T16:45:44.692Z,1.67
2018-11-14T16:48:11.530Z,1.60
2018-11-14T16:50:38.364Z,1.50
2018-11-14T16:53:05.190Z,1.60
2018-11-14T16:55:32.130Z,1.83
2018-11-14T16:57:58.926Z,2.00
2018-11-14T17:00:25.741Z,1.90
2018-11-14T17:02:52.578Z,2.03
2018-11-14T17:05:19.968Z,1.60
2018-11-14T17:07:46.787Z,1.70
2018-11-14T17:10:13.614Z,1.37
2018-11-14T17:12:40.480Z,1.80
2018-11-14T17:15:07.690Z,1.30
2018-11-14T17:17:34.499Z,1.60
2018-11-14T17:20:01.305Z,1.80
2018-11-14T17:22:28.161Z,1.50
2018-11-14T17:24:55.036Z,1.77
2018-11-14T17:27:21.847Z,1.37
2018-11-14T17:29:48.671Z,1.70
2018-11-14T17:32:16.129Z,1.60
2018-11-14T17:34:43.003Z,1.77
2018-11-14T17:37:09.827Z,1.60
2018-11-14T17:39:36.671Z,1.93
2018-11-14T17:42:03.637Z,1.70
2018-11-14T17:44:30.369Z,1.77
2018-11-14T17:46:57.191Z,1.43
2018-11-14T17:49:24.012Z,1.70
2018-11-14T17:51:50.840Z,1.80
2018-11-14T17:54:17.752Z,1.57
2018-11-14T17:56:44.594Z,1.50
2018-11-14T17:59:11.418Z,1.93
2018-11-14T18:01:38.249Z,1.60
2018-11-14T18:04:05.116Z,1.73
2018-11-14T18:06:31.952Z,1.80
2018-11-14T18:08:58.816Z,1.37
2018-11-14T18:11:25.665Z,1.57
2018-11-14T18:13:52.701Z,1.27
2018-11-14T18:16:19.513Z,1.50
2018-11-14T18:18:46.325Z,1.40
2018-11-14T18:21:13.158Z,1.57
2018-11-14T18:23:39.989Z,2.23
2018-11-14T18:26:06.940Z,2.23
2018-11-14T18:28:33.751Z,1.53
2018-11-14T18:31:00.674Z,1.60
2018-11-14T18:33:27.514Z,1.53
2018-11-14T18:35:54.345Z,1.60
2018-11-14T18:38:21.176Z,1.80
2018-11-14T18:40:48.026Z,2.33
2018-11-14T18:43:15.007Z,2.00
2018-11-14T18:45:43.364Z,1.97
2018-11-14T18:48:10.302Z,2.33
2018-11-14T18:50:37.551Z,2.80
2018-11-14T18:53:04.403Z,1.97
2018-11-14T18:55:32.338Z,2.10
2018-11-14T18:57:59.818Z,2.80
2018-11-14T19:00:26.865Z,2.53
2018-11-14T19:02:53.822Z,2.80
2018-11-14T19:05:21.146Z,3.50
2018-11-14T19:07:48.051Z,3.87
2018-11-14T19:10:14.881Z,3.53
2018-11-14T19:12:41.730Z,4.40
2018-11-14T19:15:11.089Z,4.23
2018-11-14T19:17:38.008Z,4.23
2018-11-14T19:20:04.829Z,3.70
2018-11-14T19:22:31.691Z,4.20
2018-11-14T19:24:58.526Z,3.47
2018-11-14T19:27:25.362Z,3.60
2018-11-14T19:29:52.174Z,3.80
2018-11-14T19:32:19.467Z,4.00
2018-11-14T19:34:46.300Z,4.23
2018-11-14T19:37:13.130Z,4.57
2018-11-14T19:39:39.967Z,4.00
2018-11-14T19:42:06.785Z,4.50
2018-11-14T19:44:33.654Z,3.53
2018-11-14T19:47:00.545Z,4.50
2018-11-14T19:49:27.395Z,4.10
2018-11-14T19:51:54.201Z,4.23
2018-11-14T19:54:21.042Z,4.67
2018-11-14T19:56:47.881Z,4.03
2018-11-14T19:59:14.743Z,4.13
2018-11-14T20:01:41.546Z,4.70
2018-11-14T20:04:08.401Z,3.27
2018-11-14T20:06:35.266Z,4.37
2018-11-14T20:09:02.102Z,4.00
2018-11-14T20:11:28.932Z,4.03
2018-11-14T20:13:55.776Z,3.83
2018-11-14T20:16:22.598Z,4.50
2018-11-14T20:18:49.449Z,3.93
2018-11-14T20:21:16.295Z,4.50
2018-11-14T20:23:43.110Z,4.40
2018-11-14T20:26:10.091Z,4.90
2018-11-14T20:28:36.934Z,5.07
2018-11-14T20:31:03.769Z,5.10
2018-11-14T20:33:30.630Z,4.47
2018-11-14T20:35:57.472Z,4.60
2018-11-14T20:38:24.299Z,4.30
2018-11-14T20:40:51.127Z,5.33
2018-11-14T20:43:17.997Z,5.27
2018-11-14T20:45:44.936Z,5.30
2018-11-14T20:48:11.761Z,4.80
2018-11-14T20:50:38.621Z,5.63
2018-11-14T20:53:05.446Z,5.03
2018-11-14T20:55:32.332Z,4.90
2018-11-14T20:57:59.164Z,5.10
2018-11-14T21:00:25.981Z,4.57
2018-11-14T21:02:52.823Z,4.87
2018-11-14T21:05:19.688Z,5.20
2018-11-14T21:07:46.531Z,5.20
2018-11-14T21:10:13.358Z,5.40
2018-11-14T21:12:40.228Z,4.90
2018-11-14T21:15:07.110Z,5.00
2018-11-14T21:17:33.914Z,5.00
2018-11-14T21:20:00.745Z,5.60
2018-11-14T21:22:27.578Z,5.40
2018-11-14T21:24:54.447Z,4.97
2018-11-14T21:27:21.301Z,4.93
2018-11-14T21:29:48.299Z,5.47
2018-11-14T21:32:15.002Z,5.43
2018-11-14T21:34:42.004Z,5.10
2018-11-14T21:37:08.845Z,5.30
2018-11-14T21:39:35.891Z,5.70
2018-11-14T21:42:02.727Z,5.03
2018-11-14T21:44:29.593Z,5.30
2018-11-14T21:46:56.397Z,5.50
2018-11-14T21:49:23.234Z,5.13
2018-11-14T21:51:50.097Z,5.47
2018-11-14T21:54:17.923Z,4.97
2018-11-14T21:56:44.739Z,4.93
2018-11-14T21:59:11.583Z,5.07
2018-11-14T22:01:38.408Z,4.77
2018-11-14T22:04:05.350Z,5.13
2018-11-14T22:06:32.181Z,4.57
2018-11-14T22:08:59.016Z,5.00
2018-11-14T22:11:25.899Z,5.50
2018-11-14T22:13:52.928Z,4.37
2018-11-14T22:16:19.806Z,5.27
2018-11-14T22:18:46.632Z,5.33
2018-11-14T22:21:13.568Z,5.80
2018-11-14T22:23:40.283Z,4.80
2018-11-14T22:26:07.120Z,4.50
2018-11-14T22:28:33.985Z,4.93
2018-11-14T22:31:00.845Z,5.40
2018-11-14T22:33:27.668Z,5.27
2018-11-14T22:35:54.508Z,5.10
2018-11-14T22:38:21.369Z,4.77
2018-11-14T22:40:49.439Z,4.73
2018-11-14T22:43:16.272Z,4.50
2018-11-14T22:45:43.493Z,4.37
2018-11-14T22:48:10.320Z,5.27
2018-11-14T22:50:37.149Z,4.90
2018-11-14T22:53:04.024Z,4.87
2018-11-14T22:55:31.056Z,4.57
2018-11-14T22:57:57.957Z,5.10
2018-11-14T23:00:24.781Z,5.07
2018-11-14T23:02:52.491Z,4.43
2018-11-14T23:05:19.553Z,4.93
2018-11-14T23:07:46.429Z,4.73
2018-11-14T23:10:13.249Z,5.30
2018-11-14T23:12:40.067Z,4.50
2018-11-14T23:15:07.065Z,5.20
2018-11-14T23:17:33.902Z,5.70
2018-11-14T23:20:00.714Z,5.10
2018-11-14T23:22:27.556Z,4.20
2018-11-14T23:24:54.463Z,4.23
2018-11-14T23:27:21.315Z,4.30
2018-11-14T23:29:48.136Z,4.97
2018-11-14T23:32:14.960Z,4.10
2018-11-14T23:34:41.817Z,3.60
2018-11-14T23:37:08.650Z,4.57
2018-11-14T23:39:35.468Z,4.17
2018-11-14T23:42:02.539Z,3.73
2018-11-14T23:44:29.382Z,4.20
2018-11-14T23:46:56.207Z,4.03
2018-11-14T23:49:23.062Z,4.40
2018-11-14T23:51:50.212Z,3.67
2018-11-14T23:54:17.182Z,4.10
2018-11-14T23:56:44.368Z,3.40
2018-11-14T23:59:11.180Z,3.80
